sensor_id;sensor_type;location;lat;lon;timestamp;P1;durP1;ratioP1;P2;durP2;ratioP2
43580;SDS011;29175;51.030;4.606;2023-06-10T00:01:55;15.15;;;8.75;;
43580;SDS011;29175;51.030;4.606;2023-06-10T00:04:24;20.58;;;9.43;;
43580;SDS011;29175;51.030;4.606;2023-06-10T00:06:51;16.63;;;8.65;;
43580;SDS011;29175;51.030;4.606;2023-06-10T00:09:16;16.65;;;9.55;;
43580;SDS011;29175;51.030;4.606;2023-06-10T00:11:43;16.55;;;9.45;;
43580;SDS011;29175;51.030;4.606;2023-06-10T00:14:09;16.73;;;8.98;;
43580;SDS011;29175;51.030;4.606;2023-06-10T00:16:35;15.95;;;9.63;;
43580;SDS011;29175;51.030;4.606;2023-06-10T00:19:01;16.48;;;9.20;;
43580;SDS011;29175;51.030;4.606;2023-06-10T00:21:28;13.30;;;8.63;;
43580;SDS011;29175;51.030;4.606;2023-06-10T00:23:55;20.67;;;10.32;;
43580;SDS011;29175;51.030;4.606;2023-06-10T00:26:24;20.98;;;9.73;;
43580;SDS011;29175;51.030;4.606;2023-06-10T00:28:51;19.52;;;9.93;;
43580;SDS011;29175;51.030;4.606;2023-06-10T00:31:17;18.30;;;10.15;;
43580;SDS011;29175;51.030;4.606;2023-06-10T00:33:43;22.02;;;9.85;;
43580;SDS011;29175;51.030;4.606;2023-06-10T00:36:09;16.60;;;9.77;;
43580;SDS011;29175;51.030;4.606;2023-06-10T00:38:35;18.75;;;9.43;;
43580;SDS011;29175;51.030;4.606;2023-06-10T00:41:01;18.10;;;9.63;;
43580;SDS011;29175;51.030;4.606;2023-06-10T00:43:26;15.60;;;9.65;;
43580;SDS011;29175;51.030;4.606;2023-06-10T00:45:52;16.92;;;10.45;;
43580;SDS011;29175;51.030;4.606;2023-06-10T00:48:18;16.15;;;10.15;;
43580;SDS011;29175;51.030;4.606;2023-06-10T00:50:47;17.27;;;9.25;;
43580;SDS011;29175;51.030;4.606;2023-06-10T00:53:14;18.63;;;10.07;;
43580;SDS011;29175;51.030;4.606;2023-06-10T00:55:40;17.98;;;9.38;;
43580;SDS011;29175;51.030;4.606;2023-06-10T00:58:06;17.25;;;10.43;;
43580;SDS011;29175;51.030;4.606;2023-06-10T01:00:33;14.13;;;9.45;;
43580;SDS011;29175;51.030;4.606;2023-06-10T01:02:58;23.23;;;10.38;;
43580;SDS011;29175;51.030;4.606;2023-06-10T01:05:24;18.05;;;10.07;;
43580;SDS011;29175;51.030;4.606;2023-06-10T01:10:33;21.30;;;11.02;;
43580;SDS011;29175;51.030;4.606;2023-06-10T01:15:33;17.90;;;10.07;;
43580;SDS011;29175;51.030;4.606;2023-06-10T01:18:01;17.45;;;10.45;;
43580;SDS011;29175;51.030;4.606;2023-06-10T01:20:43;23.60;;;11.05;;
43580;SDS011;29175;51.030;4.606;2023-06-10T01:23:11;20.52;;;11.05;;
43580;SDS011;29175;51.030;4.606;2023-06-10T01:25:38;22.55;;;10.85;;
43580;SDS011;29175;51.030;4.606;2023-06-10T01:31:19;19.58;;;11.80;;
43580;SDS011;29175;51.030;4.606;2023-06-10T01:33:59;24.25;;;12.32;;
43580;SDS011;29175;51.030;4.606;2023-06-10T01:36:27;19.08;;;11.35;;
43580;SDS011;29175;51.030;4.606;2023-06-10T01:38:54;18.33;;;11.20;;
43580;SDS011;29175;51.030;4.606;2023-06-10T01:41:21;18.73;;;10.95;;
43580;SDS011;29175;51.030;4.606;2023-06-10T01:43:48;20.92;;;11.93;;
43580;SDS011;29175;51.030;4.606;2023-06-10T01:46:14;22.02;;;11.65;;
43580;SDS011;29175;51.030;4.606;2023-06-10T01:48:41;23.30;;;12.00;;
43580;SDS011;29175;51.030;4.606;2023-06-10T01:51:07;18.60;;;11.00;;
43580;SDS011;29175;51.030;4.606;2023-06-10T01:53:33;18.08;;;11.13;;
43580;SDS011;29175;51.030;4.606;2023-06-10T01:55:59;21.27;;;11.70;;
43580;SDS011;29175;51.030;4.606;2023-06-10T01:58:25;22.25;;;11.88;;
43580;SDS011;29175;51.030;4.606;2023-06-10T02:00:50;20.70;;;12.25;;
43580;SDS011;29175;51.030;4.606;2023-06-10T02:03:17;19.08;;;11.77;;
43580;SDS011;29175;51.030;4.606;2023-06-10T02:05:43;25.67;;;12.00;;
43580;SDS011;29175;51.030;4.606;2023-06-10T02:08:09;21.05;;;11.50;;
43580;SDS011;29175;51.030;4.606;2023-06-10T02:10:35;21.45;;;12.15;;
43580;SDS011;29175;51.030;4.606;2023-06-10T02:13:01;22.80;;;12.05;;
43580;SDS011;29175;51.030;4.606;2023-06-10T02:15:27;23.35;;;12.85;;
43580;SDS011;29175;51.030;4.606;2023-06-10T02:17:53;18.65;;;11.68;;
43580;SDS011;29175;51.030;4.606;2023-06-10T02:20:19;21.98;;;11.38;;
43580;SDS011;29175;51.030;4.606;2023-06-10T02:22:46;24.05;;;12.63;;
43580;SDS011;29175;51.030;4.606;2023-06-10T02:25:11;23.17;;;12.85;;
43580;SDS011;29175;51.030;4.606;2023-06-10T02:27:37;27.52;;;12.90;;
43580;SDS011;29175;51.030;4.606;2023-06-10T02:30:03;26.63;;;12.63;;
43580;SDS011;29175;51.030;4.606;2023-06-10T02:32:29;33.45;;;13.57;;
43580;SDS011;29175;51.030;4.606;2023-06-10T02:34:55;30.80;;;13.80;;
43580;SDS011;29175;51.030;4.606;2023-06-10T02:37:20;34.45;;;14.02;;
43580;SDS011;29175;51.030;4.606;2023-06-10T02:39:46;28.20;;;12.40;;
43580;SDS011;29175;51.030;4.606;2023-06-10T02:42:12;29.58;;;12.32;;
43580;SDS011;29175;51.030;4.606;2023-06-10T02:44:38;24.88;;;13.27;;
43580;SDS011;29175;51.030;4.606;2023-06-10T02:47:04;25.75;;;13.02;;
43580;SDS011;29175;51.030;4.606;2023-06-10T02:49:30;22.55;;;12.25;;
43580;SDS011;29175;51.030;4.606;2023-06-10T02:51:56;24.92;;;13.27;;
43580;SDS011;29175;51.030;4.606;2023-06-10T02:54:25;25.58;;;12.88;;
43580;SDS011;29175;51.030;4.606;2023-06-10T02:56:51;22.92;;;12.52;;
43580;SDS011;29175;51.030;4.606;2023-06-10T02:59:17;30.02;;;13.90;;
43580;SDS011;29175;51.030;4.606;2023-06-10T03:01:44;21.48;;;12.40;;
43580;SDS011;29175;51.030;4.606;2023-06-10T03:04:10;31.45;;;14.68;;
43580;SDS011;29175;51.030;4.606;2023-06-10T03:06:38;26.25;;;13.15;;
43580;SDS011;29175;51.030;4.606;2023-06-10T03:09:05;25.23;;;13.70;;
43580;SDS011;29175;51.030;4.606;2023-06-10T03:11:34;22.93;;;13.70;;
43580;SDS011;29175;51.030;4.606;2023-06-10T03:14:00;32.67;;;13.93;;
43580;SDS011;29175;51.030;4.606;2023-06-10T03:16:27;29.90;;;14.43;;
43580;SDS011;29175;51.030;4.606;2023-06-10T03:18:52;28.00;;;13.93;;
43580;SDS011;29175;51.030;4.606;2023-06-10T03:21:18;31.63;;;13.52;;
43580;SDS011;29175;51.030;4.606;2023-06-10T03:23:45;24.33;;;12.77;;
43580;SDS011;29175;51.030;4.606;2023-06-10T03:26:11;25.05;;;13.52;;
43580;SDS011;29175;51.030;4.606;2023-06-10T03:28:38;26.35;;;14.00;;
43580;SDS011;29175;51.030;4.606;2023-06-10T03:31:04;24.88;;;12.93;;
43580;SDS011;29175;51.030;4.606;2023-06-10T03:33:30;28.20;;;15.13;;
43580;SDS011;29175;51.030;4.606;2023-06-10T03:35:56;30.98;;;14.38;;
43580;SDS011;29175;51.030;4.606;2023-06-10T03:38:22;25.52;;;13.85;;
43580;SDS011;29175;51.030;4.606;2023-06-10T03:40:47;25.27;;;15.07;;
43580;SDS011;29175;51.030;4.606;2023-06-10T03:43:13;26.27;;;13.88;;
43580;SDS011;29175;51.030;4.606;2023-06-10T03:45:39;24.10;;;12.98;;
43580;SDS011;29175;51.030;4.606;2023-06-10T03:48:06;27.58;;;14.00;;
43580;SDS011;29175;51.030;4.606;2023-06-10T03:50:33;26.48;;;13.98;;
43580;SDS011;29175;51.030;4.606;2023-06-10T03:53:00;25.98;;;14.35;;
43580;SDS011;29175;51.030;4.606;2023-06-10T03:55:26;25.63;;;14.10;;
43580;SDS011;29175;51.030;4.606;2023-06-10T03:57:52;22.90;;;13.55;;
43580;SDS011;29175;51.030;4.606;2023-06-10T04:00:18;28.40;;;14.32;;
43580;SDS011;29175;51.030;4.606;2023-06-10T04:02:46;23.23;;;13.60;;
43580;SDS011;29175;51.030;4.606;2023-06-10T04:05:13;26.30;;;14.25;;
43580;SDS011;29175;51.030;4.606;2023-06-10T04:07:40;24.52;;;13.07;;
43580;SDS011;29175;51.030;4.606;2023-06-10T04:10:07;28.67;;;14.77;;
43580;SDS011;29175;51.030;4.606;2023-06-10T04:12:34;28.77;;;14.98;;
43580;SDS011;29175;51.030;4.606;2023-06-10T04:15:00;29.25;;;15.52;;
43580;SDS011;29175;51.030;4.606;2023-06-10T04:17:26;26.52;;;14.13;;
43580;SDS011;29175;51.030;4.606;2023-06-10T04:19:52;28.75;;;14.07;;
43580;SDS011;29175;51.030;4.606;2023-06-10T04:22:20;27.90;;;15.38;;
43580;SDS011;29175;51.030;4.606;2023-06-10T04:24:47;24.48;;;14.20;;
43580;SDS011;29175;51.030;4.606;2023-06-10T04:27:24;22.17;;;13.73;;
43580;SDS011;29175;51.030;4.606;2023-06-10T04:29:49;24.45;;;14.60;;
43580;SDS011;29175;51.030;4.606;2023-06-10T04:32:15;26.83;;;13.73;;
43580;SDS011;29175;51.030;4.606;2023-06-10T04:34:41;25.25;;;14.18;;
43580;SDS011;29175;51.030;4.606;2023-06-10T04:37:07;26.20;;;14.13;;
43580;SDS011;29175;51.030;4.606;2023-06-10T04:39:33;24.27;;;13.95;;
43580;SDS011;29175;51.030;4.606;2023-06-10T04:41:59;23.13;;;13.43;;
43580;SDS011;29175;51.030;4.606;2023-06-10T04:44:25;26.55;;;14.13;;
43580;SDS011;29175;51.030;4.606;2023-06-10T04:46:51;26.15;;;13.75;;
43580;SDS011;29175;51.030;4.606;2023-06-10T04:49:20;26.07;;;15.43;;
43580;SDS011;29175;51.030;4.606;2023-06-10T04:51:46;28.27;;;14.73;;
43580;SDS011;29175;51.030;4.606;2023-06-10T04:54:12;25.80;;;14.18;;
43580;SDS011;29175;51.030;4.606;2023-06-10T04:56:37;25.90;;;13.93;;
43580;SDS011;29175;51.030;4.606;2023-06-10T04:59:04;28.30;;;13.82;;
43580;SDS011;29175;51.030;4.606;2023-06-10T05:01:30;25.25;;;13.75;;
43580;SDS011;29175;51.030;4.606;2023-06-10T05:03:55;27.77;;;13.38;;
43580;SDS011;29175;51.030;4.606;2023-06-10T05:06:21;21.45;;;13.82;;
43580;SDS011;29175;51.030;4.606;2023-06-10T05:08:47;25.30;;;12.82;;
43580;SDS011;29175;51.030;4.606;2023-06-10T05:11:13;27.75;;;12.80;;
43580;SDS011;29175;51.030;4.606;2023-06-10T05:13:41;31.08;;;13.80;;
43580;SDS011;29175;51.030;4.606;2023-06-10T05:16:07;22.33;;;12.60;;
43580;SDS011;29175;51.030;4.606;2023-06-10T05:18:34;22.80;;;12.65;;
43580;SDS011;29175;51.030;4.606;2023-06-10T05:21:01;24.60;;;12.52;;
43580;SDS011;29175;51.030;4.606;2023-06-10T05:23:28;23.58;;;12.73;;
43580;SDS011;29175;51.030;4.606;2023-06-10T05:25:55;23.60;;;13.73;;
43580;SDS011;29175;51.030;4.606;2023-06-10T05:28:20;25.13;;;13.32;;
43580;SDS011;29175;51.030;4.606;2023-06-10T05:30:46;25.08;;;12.60;;
43580;SDS011;29175;51.030;4.606;2023-06-10T05:33:12;22.13;;;12.18;;
43580;SDS011;29175;51.030;4.606;2023-06-10T05:35:37;21.65;;;12.90;;
43580;SDS011;29175;51.030;4.606;2023-06-10T05:38:03;25.17;;;12.63;;
43580;SDS011;29175;51.030;4.606;2023-06-10T05:40:30;26.38;;;13.00;;
43580;SDS011;29175;51.030;4.606;2023-06-10T05:42:55;26.63;;;12.77;;
43580;SDS011;29175;51.030;4.606;2023-06-10T05:45:21;23.15;;;12.48;;
43580;SDS011;29175;51.030;4.606;2023-06-10T05:47:46;27.67;;;12.57;;
43580;SDS011;29175;51.030;4.606;2023-06-10T05:50:12;29.23;;;12.90;;
43580;SDS011;29175;51.030;4.606;2023-06-10T05:52:38;22.35;;;13.10;;
43580;SDS011;29175;51.030;4.606;2023-06-10T05:55:06;25.77;;;12.02;;
43580;SDS011;29175;51.030;4.606;2023-06-10T05:57:32;21.88;;;12.93;;
43580;SDS011;29175;51.030;4.606;2023-06-10T05:59:59;24.42;;;12.07;;
43580;SDS011;29175;51.030;4.606;2023-06-10T06:02:24;27.75;;;12.52;;
43580;SDS011;29175;51.030;4.606;2023-06-10T06:04:50;25.80;;;12.52;;
43580;SDS011;29175;51.030;4.606;2023-06-10T06:07:16;21.00;;;11.70;;
43580;SDS011;29175;51.030;4.606;2023-06-10T06:09:41;22.35;;;12.30;;
43580;SDS011;29175;51.030;4.606;2023-06-10T06:12:07;23.02;;;12.23;;
43580;SDS011;29175;51.030;4.606;2023-06-10T06:14:36;25.08;;;13.80;;
43580;SDS011;29175;51.030;4.606;2023-06-10T06:17:11;19.38;;;11.68;;
43580;SDS011;29175;51.030;4.606;2023-06-10T06:19:37;18.13;;;11.07;;
43580;SDS011;29175;51.030;4.606;2023-06-10T06:22:03;18.63;;;11.07;;
43580;SDS011;29175;51.030;4.606;2023-06-10T06:24:29;21.95;;;11.30;;
43580;SDS011;29175;51.030;4.606;2023-06-10T06:26:54;18.60;;;11.52;;
43580;SDS011;29175;51.030;4.606;2023-06-10T06:29:20;23.80;;;11.82;;
43580;SDS011;29175;51.030;4.606;2023-06-10T06:31:46;23.95;;;11.90;;
43580;SDS011;29175;51.030;4.606;2023-06-10T06:34:11;22.25;;;11.68;;
43580;SDS011;29175;51.030;4.606;2023-06-10T06:36:37;21.00;;;10.98;;
43580;SDS011;29175;51.030;4.606;2023-06-10T06:39:02;22.27;;;11.68;;
43580;SDS011;29175;51.030;4.606;2023-06-10T06:41:28;17.83;;;9.80;;
43580;SDS011;29175;51.030;4.606;2023-06-10T06:43:54;19.48;;;10.52;;
43580;SDS011;29175;51.030;4.606;2023-06-10T06:46:20;18.63;;;10.23;;
43580;SDS011;29175;51.030;4.606;2023-06-10T06:48:47;20.65;;;10.15;;
43580;SDS011;29175;51.030;4.606;2023-06-10T06:51:13;17.02;;;10.05;;
43580;SDS011;29175;51.030;4.606;2023-06-10T06:53:39;16.45;;;8.60;;
43580;SDS011;29175;51.030;4.606;2023-06-10T06:56:09;18.40;;;9.13;;
43580;SDS011;29175;51.030;4.606;2023-06-10T06:58:35;18.23;;;9.32;;
43580;SDS011;29175;51.030;4.606;2023-06-10T07:01:01;17.92;;;8.70;;
43580;SDS011;29175;51.030;4.606;2023-06-10T07:03:27;17.80;;;8.75;;
43580;SDS011;29175;51.030;4.606;2023-06-10T07:05:52;12.25;;;8.48;;
43580;SDS011;29175;51.030;4.606;2023-06-10T07:08:18;15.95;;;8.77;;
43580;SDS011;29175;51.030;4.606;2023-06-10T07:10:43;16.17;;;8.65;;
43580;SDS011;29175;51.030;4.606;2023-06-10T07:13:09;17.67;;;9.00;;
43580;SDS011;29175;51.030;4.606;2023-06-10T07:15:35;14.13;;;8.27;;
43580;SDS011;29175;51.030;4.606;2023-06-10T07:18:01;12.77;;;8.23;;
43580;SDS011;29175;51.030;4.606;2023-06-10T07:20:26;13.70;;;8.27;;
43580;SDS011;29175;51.030;4.606;2023-06-10T07:22:52;12.13;;;7.93;;
43580;SDS011;29175;51.030;4.606;2023-06-10T07:25:18;13.30;;;8.02;;
43580;SDS011;29175;51.030;4.606;2023-06-10T07:27:44;15.27;;;8.30;;
43580;SDS011;29175;51.030;4.606;2023-06-10T07:30:09;14.98;;;7.68;;
43580;SDS011;29175;51.030;4.606;2023-06-10T07:32:36;14.93;;;8.07;;
43580;SDS011;29175;51.030;4.606;2023-06-10T07:35:01;15.85;;;7.78;;
43580;SDS011;29175;51.030;4.606;2023-06-10T07:37:27;14.40;;;7.53;;
43580;SDS011;29175;51.030;4.606;2023-06-10T07:39:53;16.17;;;7.88;;
43580;SDS011;29175;51.030;4.606;2023-06-10T07:42:18;13.20;;;7.50;;
43580;SDS011;29175;51.030;4.606;2023-06-10T07:44:44;17.85;;;8.00;;
43580;SDS011;29175;51.030;4.606;2023-06-10T07:47:10;17.05;;;8.27;;
43580;SDS011;29175;51.030;4.606;2023-06-10T07:49:35;45.20;;;15.02;;
43580;SDS011;29175;51.030;4.606;2023-06-10T07:52:01;15.27;;;7.65;;
43580;SDS011;29175;51.030;4.606;2023-06-10T07:54:27;13.15;;;7.72;;
43580;SDS011;29175;51.030;4.606;2023-06-10T07:56:52;12.05;;;7.38;;
43580;SDS011;29175;51.030;4.606;2023-06-10T07:59:18;13.85;;;7.35;;
43580;SDS011;29175;51.030;4.606;2023-06-10T08:01:44;14.00;;;7.45;;
43580;SDS011;29175;51.030;4.606;2023-06-10T08:04:09;15.00;;;7.75;;
43580;SDS011;29175;51.030;4.606;2023-06-10T08:06:35;13.52;;;7.70;;
43580;SDS011;29175;51.030;4.606;2023-06-10T08:09:02;16.10;;;7.78;;
43580;SDS011;29175;51.030;4.606;2023-06-10T08:11:28;14.18;;;7.95;;
43580;SDS011;29175;51.030;4.606;2023-06-10T08:13:54;13.57;;;6.65;;
43580;SDS011;29175;51.030;4.606;2023-06-10T08:16:20;13.25;;;6.40;;
43580;SDS011;29175;51.030;4.606;2023-06-10T08:18:46;10.50;;;6.95;;
43580;SDS011;29175;51.030;4.606;2023-06-10T08:21:11;12.77;;;6.75;;
43580;SDS011;29175;51.030;4.606;2023-06-10T08:23:37;12.80;;;6.93;;
43580;SDS011;29175;51.030;4.606;2023-06-10T08:26:03;11.32;;;6.40;;
43580;SDS011;29175;51.030;4.606;2023-06-10T08:28:28;14.70;;;6.60;;
43580;SDS011;29175;51.030;4.606;2023-06-10T08:30:54;11.98;;;6.57;;
43580;SDS011;29175;51.030;4.606;2023-06-10T08:33:20;13.32;;;5.72;;
43580;SDS011;29175;51.030;4.606;2023-06-10T08:35:45;13.30;;;6.05;;
43580;SDS011;29175;51.030;4.606;2023-06-10T08:38:11;11.30;;;6.43;;
43580;SDS011;29175;51.030;4.606;2023-06-10T08:40:37;10.15;;;5.95;;
43580;SDS011;29175;51.030;4.606;2023-06-10T08:43:06;12.20;;;6.63;;
43580;SDS011;29175;51.030;4.606;2023-06-10T08:45:36;10.57;;;6.30;;
43580;SDS011;29175;51.030;4.606;2023-06-10T08:48:05;9.63;;;6.00;;
43580;SDS011;29175;51.030;4.606;2023-06-10T08:50:33;11.90;;;6.38;;
43580;SDS011;29175;51.030;4.606;2023-06-10T08:53:01;13.18;;;6.68;;
43580;SDS011;29175;51.030;4.606;2023-06-10T08:55:38;12.55;;;6.63;;
43580;SDS011;29175;51.030;4.606;2023-06-10T08:58:07;14.73;;;6.90;;
43580;SDS011;29175;51.030;4.606;2023-06-10T09:00:33;13.50;;;7.25;;
43580;SDS011;29175;51.030;4.606;2023-06-10T09:03:00;10.65;;;6.05;;
43580;SDS011;29175;51.030;4.606;2023-06-10T09:05:28;12.05;;;7.13;;
43580;SDS011;29175;51.030;4.606;2023-06-10T09:07:54;13.05;;;6.53;;
43580;SDS011;29175;51.030;4.606;2023-06-10T09:10:22;12.50;;;6.68;;
43580;SDS011;29175;51.030;4.606;2023-06-10T09:12:48;11.45;;;6.68;;
43580;SDS011;29175;51.030;4.606;2023-06-10T09:15:14;13.07;;;6.55;;
43580;SDS011;29175;51.030;4.606;2023-06-10T09:17:42;14.98;;;6.40;;
43580;SDS011;29175;51.030;4.606;2023-06-10T09:20:08;11.77;;;5.93;;
43580;SDS011;29175;51.030;4.606;2023-06-10T09:22:34;11.65;;;6.40;;
43580;SDS011;29175;51.030;4.606;2023-06-10T09:27:30;10.75;;;6.25;;
43580;SDS011;29175;51.030;4.606;2023-06-10T09:29:57;11.23;;;6.50;;
43580;SDS011;29175;51.030;4.606;2023-06-10T09:32:23;11.90;;;6.72;;
43580;SDS011;29175;51.030;4.606;2023-06-10T09:34:49;14.30;;;6.65;;
43580;SDS011;29175;51.030;4.606;2023-06-10T09:37:22;11.18;;;6.53;;
43580;SDS011;29175;51.030;4.606;2023-06-10T09:40:07;15.82;;;6.28;;
43580;SDS011;29175;51.030;4.606;2023-06-10T09:42:34;12.52;;;7.22;;
43580;SDS011;29175;51.030;4.606;2023-06-10T09:45:01;13.15;;;7.25;;
43580;SDS011;29175;51.030;4.606;2023-06-10T09:47:28;13.43;;;7.20;;
43580;SDS011;29175;51.030;4.606;2023-06-10T09:49:54;14.20;;;6.93;;
43580;SDS011;29175;51.030;4.606;2023-06-10T09:52:23;12.52;;;6.55;;
43580;SDS011;29175;51.030;4.606;2023-06-10T09:54:53;18.90;;;7.25;;
43580;SDS011;29175;51.030;4.606;2023-06-10T09:57:20;11.98;;;6.65;;
43580;SDS011;29175;51.030;4.606;2023-06-10T09:59:46;10.27;;;6.43;;
43580;SDS011;29175;51.030;4.606;2023-06-10T10:02:15;10.55;;;6.07;;
43580;SDS011;29175;51.030;4.606;2023-06-10T10:04:42;12.30;;;5.78;;
43580;SDS011;29175;51.030;4.606;2023-06-10T10:07:11;9.23;;;6.13;;
43580;SDS011;29175;51.030;4.606;2023-06-10T10:09:38;12.32;;;6.00;;
43580;SDS011;29175;51.030;4.606;2023-06-10T10:12:09;11.75;;;6.97;;
43580;SDS011;29175;51.030;4.606;2023-06-10T10:14:39;13.30;;;5.93;;
43580;SDS011;29175;51.030;4.606;2023-06-10T10:17:10;13.75;;;6.20;;
43580;SDS011;29175;51.030;4.606;2023-06-10T10:19:43;9.50;;;5.95;;
43580;SDS011;29175;51.030;4.606;2023-06-10T10:22:46;14.52;;;5.93;;
43580;SDS011;29175;51.030;4.606;2023-06-10T10:25:16;11.20;;;5.93;;
43580;SDS011;29175;51.030;4.606;2023-06-10T10:30:39;9.57;;;5.97;;
43580;SDS011;29175;51.030;4.606;2023-06-10T10:33:16;11.75;;;5.80;;
43580;SDS011;29175;51.030;4.606;2023-06-10T10:35:48;13.63;;;6.57;;
43580;SDS011;29175;51.030;4.606;2023-06-10T10:38:15;12.25;;;6.28;;
43580;SDS011;29175;51.030;4.606;2023-06-10T10:40:41;11.98;;;6.35;;
43580;SDS011;29175;51.030;4.606;2023-06-10T10:43:08;12.70;;;5.95;;
43580;SDS011;29175;51.030;4.606;2023-06-10T10:45:34;10.88;;;5.43;;
43580;SDS011;29175;51.030;4.606;2023-06-10T10:48:04;13.05;;;6.10;;
43580;SDS011;29175;51.030;4.606;2023-06-10T10:50:35;14.30;;;6.35;;
43580;SDS011;29175;51.030;4.606;2023-06-10T10:53:01;12.50;;;6.00;;
43580;SDS011;29175;51.030;4.606;2023-06-10T10:55:28;9.60;;;5.53;;
43580;SDS011;29175;51.030;4.606;2023-06-10T10:57:55;10.95;;;5.90;;
43580;SDS011;29175;51.030;4.606;2023-06-10T11:00:28;16.30;;;5.85;;
43580;SDS011;29175;51.030;4.606;2023-06-10T11:05:31;11.10;;;6.30;;
43580;SDS011;29175;51.030;4.606;2023-06-10T11:08:13;13.45;;;5.55;;
43580;SDS011;29175;51.030;4.606;2023-06-10T11:10:54;10.30;;;5.95;;
43580;SDS011;29175;51.030;4.606;2023-06-10T11:13:20;11.52;;;5.88;;
43580;SDS011;29175;51.030;4.606;2023-06-10T11:15:49;10.57;;;5.82;;
43580;SDS011;29175;51.030;4.606;2023-06-10T11:18:25;10.37;;;5.63;;
43580;SDS011;29175;51.030;4.606;2023-06-10T11:20:53;11.88;;;6.63;;
43580;SDS011;29175;51.030;4.606;2023-06-10T11:31:25;12.15;;;6.75;;
43580;SDS011;29175;51.030;4.606;2023-06-10T11:33:59;16.35;;;6.85;;
43580;SDS011;29175;51.030;4.606;2023-06-10T11:36:29;12.63;;;6.53;;
43580;SDS011;29175;51.030;4.606;2023-06-10T11:38:56;10.00;;;6.32;;
43580;SDS011;29175;51.030;4.606;2023-06-10T11:41:26;15.00;;;6.10;;
43580;SDS011;29175;51.030;4.606;2023-06-10T11:43:55;13.98;;;6.43;;
43580;SDS011;29175;51.030;4.606;2023-06-10T11:46:21;14.48;;;6.40;;
43580;SDS011;29175;51.030;4.606;2023-06-10T11:48:54;11.57;;;6.18;;
43580;SDS011;29175;51.030;4.606;2023-06-10T11:51:27;14.63;;;7.00;;
43580;SDS011;29175;51.030;4.606;2023-06-10T11:53:54;10.13;;;6.95;;
43580;SDS011;29175;51.030;4.606;2023-06-10T11:56:21;9.45;;;6.35;;
43580;SDS011;29175;51.030;4.606;2023-06-10T12:01:21;10.93;;;6.43;;
43580;SDS011;29175;51.030;4.606;2023-06-10T12:03:50;14.20;;;6.50;;
43580;SDS011;29175;51.030;4.606;2023-06-10T12:06:22;12.02;;;6.82;;
43580;SDS011;29175;51.030;4.606;2023-06-10T12:08:47;10.93;;;6.55;;
43580;SDS011;29175;51.030;4.606;2023-06-10T12:11:13;11.10;;;6.57;;
43580;SDS011;29175;51.030;4.606;2023-06-10T12:13:46;11.73;;;6.70;;
43580;SDS011;29175;51.030;4.606;2023-06-10T12:16:15;18.67;;;7.30;;
43580;SDS011;29175;51.030;4.606;2023-06-10T12:18:43;15.93;;;7.05;;
43580;SDS011;29175;51.030;4.606;2023-06-10T12:21:17;13.93;;;6.73;;
43580;SDS011;29175;51.030;4.606;2023-06-10T12:26:44;13.38;;;6.28;;
43580;SDS011;29175;51.030;4.606;2023-06-10T12:34:43;11.60;;;6.18;;
43580;SDS011;29175;51.030;4.606;2023-06-10T12:37:12;14.10;;;6.53;;
43580;SDS011;29175;51.030;4.606;2023-06-10T12:39:41;12.52;;;6.35;;
43580;SDS011;29175;51.030;4.606;2023-06-10T12:42:11;16.38;;;6.20;;
43580;SDS011;29175;51.030;4.606;2023-06-10T12:44:40;15.68;;;6.18;;
43580;SDS011;29175;51.030;4.606;2023-06-10T12:47:10;16.33;;;6.60;;
43580;SDS011;29175;51.030;4.606;2023-06-10T12:49:37;16.33;;;6.40;;
43580;SDS011;29175;51.030;4.606;2023-06-10T12:52:03;11.95;;;6.28;;
43580;SDS011;29175;51.030;4.606;2023-06-10T12:54:30;13.70;;;6.28;;
43580;SDS011;29175;51.030;4.606;2023-06-10T12:56:56;12.63;;;7.05;;
43580;SDS011;29175;51.030;4.606;2023-06-10T12:59:21;14.05;;;6.28;;
43580;SDS011;29175;51.030;4.606;2023-06-10T13:01:51;11.95;;;5.80;;
43580;SDS011;29175;51.030;4.606;2023-06-10T13:04:17;15.05;;;6.40;;
43580;SDS011;29175;51.030;4.606;2023-06-10T13:06:44;11.63;;;6.30;;
43580;SDS011;29175;51.030;4.606;2023-06-10T13:09:11;15.15;;;6.63;;
43580;SDS011;29175;51.030;4.606;2023-06-10T13:11:37;9.52;;;6.38;;
43580;SDS011;29175;51.030;4.606;2023-06-10T13:14:04;11.07;;;6.15;;
43580;SDS011;29175;51.030;4.606;2023-06-10T13:16:31;12.65;;;6.85;;
43580;SDS011;29175;51.030;4.606;2023-06-10T13:18:59;9.50;;;6.25;;
43580;SDS011;29175;51.030;4.606;2023-06-10T13:21:27;15.25;;;7.47;;
43580;SDS011;29175;51.030;4.606;2023-06-10T13:23:54;11.82;;;7.20;;
43580;SDS011;29175;51.030;4.606;2023-06-10T13:26:20;15.63;;;7.05;;
43580;SDS011;29175;51.030;4.606;2023-06-10T13:28:45;14.43;;;6.68;;
43580;SDS011;29175;51.030;4.606;2023-06-10T13:31:11;13.18;;;6.60;;
43580;SDS011;29175;51.030;4.606;2023-06-10T13:33:37;12.30;;;6.72;;
43580;SDS011;29175;51.030;4.606;2023-06-10T13:36:03;12.05;;;6.63;;
43580;SDS011;29175;51.030;4.606;2023-06-10T13:38:29;11.35;;;6.93;;
43580;SDS011;29175;51.030;4.606;2023-06-10T13:40:55;13.15;;;7.28;;
43580;SDS011;29175;51.030;4.606;2023-06-10T13:43:20;11.95;;;6.60;;
43580;SDS011;29175;51.030;4.606;2023-06-10T13:45:46;12.90;;;6.70;;
43580;SDS011;29175;51.030;4.606;2023-06-10T13:48:12;13.20;;;6.50;;
43580;SDS011;29175;51.030;4.606;2023-06-10T13:50:37;13.57;;;7.05;;
43580;SDS011;29175;51.030;4.606;2023-06-10T13:53:03;13.25;;;6.72;;
43580;SDS011;29175;51.030;4.606;2023-06-10T13:55:29;14.07;;;6.55;;
43580;SDS011;29175;51.030;4.606;2023-06-10T13:57:54;13.30;;;7.20;;
43580;SDS011;29175;51.030;4.606;2023-06-10T14:00:20;12.43;;;6.40;;
43580;SDS011;29175;51.030;4.606;2023-06-10T14:02:46;11.80;;;6.32;;
43580;SDS011;29175;51.030;4.606;2023-06-10T14:05:11;32.83;;;7.38;;
43580;SDS011;29175;51.030;4.606;2023-06-10T14:07:37;12.50;;;6.60;;
43580;SDS011;29175;51.030;4.606;2023-06-10T14:10:03;11.77;;;6.78;;
43580;SDS011;29175;51.030;4.606;2023-06-10T14:12:29;11.07;;;6.60;;
43580;SDS011;29175;51.030;4.606;2023-06-10T14:14:55;12.02;;;6.78;;
43580;SDS011;29175;51.030;4.606;2023-06-10T14:17:20;10.75;;;6.60;;
43580;SDS011;29175;51.030;4.606;2023-06-10T14:19:48;10.68;;;6.43;;
43580;SDS011;29175;51.030;4.606;2023-06-10T14:22:13;14.40;;;7.00;;
43580;SDS011;29175;51.030;4.606;2023-06-10T14:24:39;12.60;;;6.57;;
43580;SDS011;29175;51.030;4.606;2023-06-10T14:27:05;12.18;;;6.40;;
43580;SDS011;29175;51.030;4.606;2023-06-10T14:29:31;12.02;;;6.72;;
43580;SDS011;29175;51.030;4.606;2023-06-10T14:31:58;12.10;;;6.35;;
43580;SDS011;29175;51.030;4.606;2023-06-10T14:34:24;12.02;;;6.32;;
43580;SDS011;29175;51.030;4.606;2023-06-10T14:36:55;13.80;;;6.45;;
43580;SDS011;29175;51.030;4.606;2023-06-10T14:39:20;13.25;;;7.05;;
43580;SDS011;29175;51.030;4.606;2023-06-10T14:41:46;12.88;;;6.40;;
43580;SDS011;29175;51.030;4.606;2023-06-10T14:44:12;12.20;;;6.10;;
43580;SDS011;29175;51.030;4.606;2023-06-10T14:46:38;11.98;;;6.70;;
43580;SDS011;29175;51.030;4.606;2023-06-10T14:49:03;11.38;;;6.70;;
43580;SDS011;29175;51.030;4.606;2023-06-10T14:51:29;9.85;;;6.05;;
43580;SDS011;29175;51.030;4.606;2023-06-10T14:53:54;9.25;;;6.03;;
43580;SDS011;29175;51.030;4.606;2023-06-10T14:56:20;14.95;;;6.53;;
43580;SDS011;29175;51.030;4.606;2023-06-10T14:58:46;9.52;;;5.82;;
43580;SDS011;29175;51.030;4.606;2023-06-10T15:01:11;10.00;;;6.35;;
43580;SDS011;29175;51.030;4.606;2023-06-10T15:03:37;9.73;;;5.95;;